createdAt,value
2019-05-18T00:00:11.372Z,11.28
2019-05-18T00:01:11.226Z,11.28
2019-05-18T00:02:11.278Z,11.29
2019-05-18T00:03:11.188Z,11.28
2019-05-18T00:04:11.198Z,11.16
2019-05-18T00:05:11.137Z,11.29
2019-05-18T00:06:11.207Z,11.27
2019-05-18T00:07:11.092Z,11.35
2019-05-18T00:08:11.056Z,11.34
2019-05-18T00:09:11.039Z,11.36
2019-05-18T00:10:11.028Z,11.34
2019-05-18T00:11:10.985Z,11.34
2019-05-18T00:12:11.046Z,11.31
2019-05-18T00:13:10.930Z,11.29
2019-05-18T00:14:10.968Z,11.34
2019-05-18T00:15:10.876Z,11.35
2019-05-18T00:16:10.868Z,11.31
2019-05-18T00:17:24.432Z,11.31
2019-05-18T00:18:10.799Z,11.32
2019-05-18T00:19:10.778Z,11.21
2019-05-18T00:20:10.796Z,11.29
2019-05-18T00:21:10.729Z,11.20
2019-05-18T00:22:10.808Z,11.17
2019-05-18T00:23:10.679Z,11.27
2019-05-18T00:24:10.658Z,11.27
2019-05-18T00:25:10.619Z,11.25
2019-05-18T00:26:10.630Z,11.25
2019-05-18T00:27:10.571Z,11.17
2019-05-18T00:28:10.648Z,11.20
2019-05-18T00:29:10.521Z,11.10
2019-05-18T00:30:10.557Z,11.24
2019-05-18T00:31:10.458Z,11.17
2019-05-18T00:32:10.473Z,11.10
2019-05-18T00:33:10.410Z,11.14
2019-05-18T00:34:10.488Z,11.09
2019-05-18T00:35:10.419Z,11.17
2019-05-18T00:36:10.398Z,11.11
2019-05-18T00:37:10.319Z,11.13
2019-05-18T00:38:10.307Z,11.13
2019-05-18T00:39:10.268Z,11.09
2019-05-18T00:40:10.235Z,11.10
2019-05-18T00:41:10.237Z,11.03
2019-05-18T00:42:10.178Z,11.19
2019-05-18T00:43:10.237Z,11.16
2019-05-18T00:44:10.127Z,11.16
2019-05-18T00:45:10.098Z,11.11
2019-05-18T00:46:10.081Z,11.11
2019-05-18T00:47:10.066Z,11.09
2019-05-18T00:48:10.027Z,11.09
2019-05-18T00:49:10.078Z,11.11
2019-05-18T00:50:09.993Z,11.01
2019-05-18T00:51:09.988Z,10.99
2019-05-18T00:52:09.918Z,11.14
2019-05-18T00:53:10.033Z,11.11
2019-05-18T00:54:09.865Z,11.07
2019-05-18T00:55:09.919Z,11.13
2019-05-18T00:56:09.830Z,11.14
2019-05-18T00:57:09.827Z,11.10
2019-05-18T00:58:09.771Z,11.14
2019-05-18T00:59:09.858Z,11.13
2019-05-18T01:00:09.720Z,11.07
2019-05-18T01:01:09.687Z,11.03
2019-05-18T01:02:09.769Z,11.13
2019-05-18T01:03:09.639Z,11.13
2019-05-18T01:04:09.677Z,11.14
2019-05-18T01:05:09.601Z,11.11
2019-05-18T01:06:09.568Z,11.03
2019-05-18T01:07:09.544Z,10.98
2019-05-18T01:08:09.596Z,10.99
2019-05-18T01:09:09.500Z,11.06
2019-05-18T01:10:09.512Z,11.03
2019-05-18T01:11:09.439Z,11.02
2019-05-18T01:12:09.398Z,11.02
2019-05-18T01:13:09.429Z,11.01
2019-05-18T01:14:09.349Z,11.03
2019-05-18T01:15:09.336Z,10.98
2019-05-18T01:16:09.296Z,10.95
2019-05-18T01:17:09.300Z,10.91
2019-05-18T01:18:09.246Z,10.89
2019-05-18T01:19:09.266Z,10.83
2019-05-18T01:20:09.198Z,10.88
2019-05-18T01:21:09.178Z,10.80
2019-05-18T01:22:09.176Z,10.84
2019-05-18T01:23:09.117Z,10.77
2019-05-18T01:24:09.199Z,10.76
2019-05-18T01:25:09.078Z,10.70
2019-05-18T01:26:09.116Z,10.71
2019-05-18T01:27:09.019Z,10.66
2019-05-18T01:28:09.034Z,10.59
2019-05-18T01:29:08.957Z,10.65
2019-05-18T01:30:09.053Z,10.59
2019-05-18T01:31:08.914Z,10.47
2019-05-18T01:32:08.947Z,10.59
2019-05-18T01:33:08.858Z,10.53
2019-05-18T01:34:08.869Z,10.44
2019-05-18T01:35:08.808Z,10.55
2019-05-18T01:36:08.877Z,10.43
2019-05-18T01:37:08.747Z,10.56
2019-05-18T01:38:08.727Z,10.47
2019-05-18T01:39:08.695Z,10.47
2019-05-18T01:40:08.705Z,10.42
2019-05-18T01:41:08.649Z,10.44
2019-05-18T01:42:08.716Z,10.44
2019-05-18T01:43:08.587Z,10.37
2019-05-18T01:44:08.640Z,10.37
2019-05-18T01:45:16.952Z,10.28
2019-05-18T01:46:08.517Z,10.30
2019-05-18T01:47:08.547Z,10.32
2019-05-18T01:48:14.139Z,10.34
2019-05-18T01:49:08.438Z,10.34
2019-05-18T01:50:08.469Z,10.37
2019-05-18T01:51:08.380Z,10.33
2019-05-18T01:52:08.377Z,10.28
2019-05-18T01:53:08.337Z,10.19
2019-05-18T01:54:08.305Z,10.22
2019-05-18T01:55:08.297Z,10.21
2019-05-18T01:56:08.262Z,10.10
2019-05-18T01:57:08.320Z,10.09
2019-05-18T01:58:08.195Z,10.15
2019-05-18T01:59:08.178Z,10.09
2019-05-18T02:00:08.152Z,10.09
2019-05-18T02:01:08.127Z,10.14
2019-05-18T02:02:08.103Z,10.01
2019-05-18T02:03:08.148Z,10.04
2019-05-18T02:04:08.036Z,10.14
2019-05-18T02:05:08.019Z,9.96
2019-05-18T02:06:08.066Z,10.01
2019-05-18T02:07:07.967Z,9.83
2019-05-18T02:08:07.991Z,9.91
2019-05-18T02:09:07.907Z,9.88
2019-05-18T02:10:07.889Z,9.86
2019-05-18T02:11:07.897Z,9.94
2019-05-18T02:12:07.826Z,9.89
2019-05-18T02:13:07.907Z,9.93
2019-05-18T02:14:07.789Z,9.93
2019-05-18T02:15:07.827Z,9.82
2019-05-18T02:16:07.728Z,9.94
2019-05-18T02:17:07.740Z,10.06
2019-05-18T02:18:07.678Z,9.96
2019-05-18T02:19:07.746Z,10.01
2019-05-18T02:20:07.627Z,10.00
2019-05-18T02:21:07.656Z,10.09
2019-05-18T02:22:07.578Z,9.86
2019-05-18T02:23:07.565Z,9.88
2019-05-18T02:24:07.518Z,9.91
2019-05-18T02:25:07.586Z,9.94
2019-05-18T02:26:07.477Z,9.91
2019-05-18T02:27:07.501Z,9.89
2019-05-18T02:28:07.410Z,9.85
2019-05-18T02:29:07.409Z,9.82
2019-05-18T02:30:07.412Z,9.96
2019-05-18T02:31:07.334Z,9.83
2019-05-18T02:32:07.296Z,9.91
2019-05-18T02:33:07.339Z,9.86
2019-05-18T02:34:07.249Z,9.86
2019-05-18T02:35:07.259Z,9.91
2019-05-18T02:36:07.199Z,9.86
2019-05-18T02:37:07.259Z,9.91
2019-05-18T02:38:07.154Z,9.88
2019-05-18T02:39:07.181Z,9.96
2019-05-18T02:40:07.089Z,9.94
2019-05-18T02:41:07.091Z,9.89
2019-05-18T02:42:07.034Z,9.88
2019-05-18T02:43:07.101Z,9.91
2019-05-18T02:44:06.988Z,9.83
2019-05-18T02:45:07.008Z,9.73
2019-05-18T02:46:06.941Z,9.88
2019-05-18T02:47:06.898Z,9.83
2019-05-18T02:48:06.889Z,9.91
2019-05-18T02:49:06.938Z,9.93
2019-05-18T02:50:06.819Z,9.91
2019-05-18T02:51:11.114Z,9.94
2019-05-18T02:52:06.872Z,10.00
2019-05-18T02:53:06.738Z,9.97
2019-05-18T02:54:06.779Z,10.15
2019-05-18T02:55:06.696Z,9.99
2019-05-18T02:56:06.695Z,10.06
2019-05-18T02:57:06.627Z,10.03
2019-05-18T02:58:06.712Z,10.00
2019-05-18T02:59:06.577Z,10.00
2019-05-18T03:00:06.611Z,10.06
2019-05-18T03:01:06.522Z,10.00
2019-05-18T03:02:06.529Z,10.06
2019-05-18T03:03:06.468Z,10.03
2019-05-18T03:04:06.542Z,10.06
2019-05-18T03:05:06.420Z,10.09
2019-05-18T03:06:06.451Z,10.14
2019-05-18T03:07:06.359Z,10.15
2019-05-18T03:08:06.339Z,9.97
2019-05-18T03:09:06.370Z,10.10
2019-05-18T03:10:06.280Z,10.07
2019-05-18T03:11:06.284Z,10.04
2019-05-18T03:12:06.241Z,9.94
2019-05-18T03:13:06.216Z,9.91
2019-05-18T03:14:06.182Z,9.85
2019-05-18T03:15:06.213Z,9.91
2019-05-18T03:16:06.118Z,9.86
2019-05-18T03:17:06.108Z,9.89
2019-05-18T03:18:06.071Z,9.86
2019-05-18T03:19:08.768Z,9.88
2019-05-18T03:20:06.030Z,10.00
2019-05-18T03:21:05.989Z,9.96
2019-05-18T03:22:06.049Z,9.93
2019-05-18T03:23:05.939Z,10.04
2019-05-18T03:24:05.911Z,10.01
2019-05-18T03:25:05.961Z,9.97
2019-05-18T03:26:05.874Z,10.00
2019-05-18T03:27:05.828Z,9.94
2019-05-18T03:28:05.890Z,9.83
2019-05-18T03:29:05.898Z,9.89
2019-05-18T03:30:05.768Z,9.81
2019-05-18T03:31:05.836Z,9.83
2019-05-18T03:32:05.708Z,9.83
2019-05-18T03:33:05.792Z,9.75
2019-05-18T03:34:05.637Z,9.76
2019-05-18T03:35:05.631Z,9.82
2019-05-18T03:36:05.598Z,9.81
2019-05-18T03:37:05.638Z,9.88
2019-05-18T03:38:05.528Z,9.78
2019-05-18T03:39:05.553Z,9.85
2019-05-18T03:40:05.479Z,9.76
2019-05-18T03:41:05.466Z,9.76
2019-05-18T03:42:05.425Z,9.81
2019-05-18T03:43:05.479Z,9.78
2019-05-18T03:44:05.373Z,9.75
2019-05-18T03:45:05.348Z,9.79
2019-05-18T03:46:05.404Z,9.75
2019-05-18T03:47:05.299Z,9.71
2019-05-18T03:48:05.306Z,9.71
2019-05-18T03:49:05.229Z,9.71
2019-05-18T03:50:05.209Z,9.73
2019-05-18T03:51:05.227Z,9.75
2019-05-18T03:52:05.159Z,9.79
2019-05-18T03:53:05.138Z,9.78
2019-05-18T03:54:05.108Z,9.73
2019-05-18T03:55:05.078Z,9.76
2019-05-18T03:56:05.060Z,9.71
2019-05-18T03:57:05.067Z,9.73
2019-05-18T03:58:04.992Z,9.76
2019-05-18T03:59:05.076Z,9.78
2019-05-18T04:00:04.938Z,9.78
2019-05-18T04:01:04.918Z,9.79
2019-05-18T04:02:04.897Z,9.71
2019-05-18T04:03:04.858Z,9.71
2019-05-18T04:04:04.907Z,9.83
2019-05-18T04:05:04.797Z,9.83
2019-05-18T04:06:04.790Z,9.82
2019-05-18T04:07:04.831Z,9.89
2019-05-18T04:08:04.730Z,9.89
2019-05-18T04:09:04.741Z,9.89
2019-05-18T04:10:04.672Z,9.83
2019-05-18T04:11:04.653Z,9.97
2019-05-18T04:12:04.620Z,9.94
2019-05-18T04:13:04.673Z,10.01
2019-05-18T04:14:08.151Z,10.04
2019-05-18T04:15:04.578Z,10.00
2019-05-18T04:16:04.522Z,10.07
2019-05-18T04:17:04.598Z,10.10
2019-05-18T04:18:04.448Z,10.07
2019-05-18T04:19:04.521Z,10.15
2019-05-18T04:20:04.416Z,10.21
2019-05-18T04:21:04.423Z,10.25
2019-05-18T04:22:04.347Z,10.28
2019-05-18T04:23:04.428Z,10.30
2019-05-18T04:24:04.292Z,10.32
2019-05-18T04:25:04.357Z,10.32
2019-05-18T04:26:04.239Z,10.33
2019-05-18T04:27:04.207Z,10.39
2019-05-18T04:28:04.181Z,10.47
2019-05-18T04:29:04.269Z,10.42
2019-05-18T04:30:04.138Z,10.46
2019-05-18T04:31:04.183Z,10.46
2019-05-18T04:32:04.078Z,10.56
2019-05-18T04:33:04.090Z,10.58
2019-05-18T04:34:04.046Z,10.55
2019-05-18T04:35:04.109Z,10.65
2019-05-18T04:36:03.969Z,10.65
2019-05-18T04:37:04.034Z,10.60
2019-05-18T04:38:03.931Z,10.70
2019-05-18T04:39:03.928Z,10.66
2019-05-18T04:40:03.858Z,10.78
2019-05-18T04:41:03.951Z,10.71
2019-05-18T04:42:03.825Z,10.83
2019-05-18T04:43:03.777Z,10.77
2019-05-18T04:44:03.870Z,10.80
2019-05-18T04:45:03.818Z,10.78
2019-05-18T04:46:03.797Z,10.84
2019-05-18T04:47:03.686Z,10.92
2019-05-18T04:48:03.654Z,10.91
2019-05-18T04:49:03.641Z,10.99
2019-05-18T04:50:05.760Z,10.99
2019-05-18T04:51:03.569Z,10.95
2019-05-18T04:52:03.634Z,11.02
2019-05-18T04:53:03.528Z,11.02
2019-05-18T04:54:03.528Z,10.98
2019-05-18T04:55:03.468Z,10.98
2019-05-18T04:56:03.543Z,11.07
2019-05-18T04:57:03.426Z,11.03
2019-05-18T04:58:03.454Z,11.03
2019-05-18T04:59:03.363Z,11.09
2019-05-18T05:00:03.375Z,11.13
2019-05-18T05:01:03.316Z,11.11
2019-05-18T05:02:03.395Z,11.17
2019-05-18T05:03:03.247Z,11.16
2019-05-18T05:04:03.244Z,11.17
2019-05-18T05:05:03.300Z,11.19
2019-05-18T05:06:03.174Z,11.13
2019-05-18T05:07:03.207Z,11.21
2019-05-18T05:08:03.128Z,11.17
2019-05-18T05:09:03.086Z,11.14
2019-05-18T05:10:04.809Z,11.17
2019-05-18T05:11:03.139Z,11.25
2019-05-18T05:12:03.026Z,11.25
2019-05-18T05:13:03.046Z,11.24
2019-05-18T05:14:03.008Z,11.24
2019-05-18T05:15:02.928Z,11.28
2019-05-18T05:16:02.967Z,11.28
2019-05-18T05:17:02.898Z,11.31
2019-05-18T05:18:02.882Z,11.28
2019-05-18T05:19:02.830Z,11.36
2019-05-18T05:20:02.810Z,11.36
2019-05-18T05:21:02.783Z,11.38
2019-05-18T05:22:02.811Z,11.36
2019-05-18T05:23:02.745Z,11.36
2019-05-18T05:24:02.816Z,11.46
2019-05-18T05:25:02.768Z,11.46
2019-05-18T05:26:02.651Z,11.46
2019-05-18T05:27:02.639Z,11.56
2019-05-18T05:28:02.611Z,11.53
2019-05-18T05:29:02.657Z,11.59
2019-05-18T05:30:02.544Z,11.57
2019-05-18T05:31:02.521Z,11.59
2019-05-18T05:32:02.568Z,11.59
2019-05-18T05:33:02.468Z,11.65
2019-05-18T05:34:02.479Z,11.61
2019-05-18T05:35:02.533Z,11.54
2019-05-18T05:36:02.388Z,11.62
2019-05-18T05:37:02.387Z,11.68
2019-05-18T05:38:02.411Z,11.72
2019-05-18T05:39:02.309Z,11.72
2019-05-18T05:40:02.327Z,11.77
2019-05-18T05:41:02.342Z,11.74
2019-05-18T05:42:02.228Z,11.75
2019-05-18T05:43:02.237Z,11.74
2019-05-18T05:44:02.187Z,11.80
2019-05-18T05:45:02.253Z,11.87
2019-05-18T05:46:02.127Z,11.87
2019-05-18T05:47:02.171Z,11.90
2019-05-18T05:48:02.103Z,11.90
2019-05-18T05:49:02.092Z,12.01
2019-05-18T05:50:02.068Z,11.99
2019-05-18T05:51:02.087Z,12.01
2019-05-18T05:52:01.998Z,12.09
2019-05-18T05:53:01.949Z,12.12
2019-05-18T05:54:02.015Z,12.16
2019-05-18T05:55:01.899Z,12.20
2019-05-18T05:56:02.008Z,12.19
2019-05-18T05:57:01.926Z,12.20
2019-05-18T05:58:01.830Z,12.31
2019-05-18T05:59:01.839Z,12.30
2019-05-18T06:00:01.768Z,12.30
2019-05-18T06:01:01.748Z,12.38
2019-05-18T06:02:01.808Z,12.26
2019-05-18T06:03:01.766Z,12.29
2019-05-18T06:04:01.667Z,12.37
2019-05-18T06:05:01.693Z,12.44
2019-05-18T06:06:01.608Z,12.45
2019-05-18T06:07:01.692Z,12.44
2019-05-18T06:08:01.565Z,12.49
2019-05-18T06:09:01.606Z,12.57
2019-05-18T06:10:01.513Z,12.51
2019-05-18T06:11:01.517Z,12.52
2019-05-18T06:12:01.457Z,12.51
2019-05-18T06:13:01.426Z,12.59
2019-05-18T06:14:01.400Z,12.62
2019-05-18T06:15:01.443Z,12.63
2019-05-18T06:16:01.359Z,12.63
2019-05-18T06:17:01.349Z,12.62
2019-05-18T06:18:01.302Z,12.66
2019-05-18T06:19:01.378Z,12.62
2019-05-18T06:20:01.268Z,12.64
2019-05-18T06:21:01.283Z,12.70
2019-05-18T06:22:01.203Z,12.84
2019-05-18T06:23:01.192Z,12.79
2019-05-18T06:24:01.160Z,12.81
2019-05-18T06:25:01.220Z,12.82
2019-05-18T06:26:01.101Z,12.93
2019-05-18T06:27:01.219Z,12.99
2019-05-18T06:28:01.047Z,12.97
2019-05-18T06:29:01.006Z,12.99
2019-05-18T06:30:00.999Z,13.11
2019-05-18T06:31:01.037Z,13.18
2019-05-18T06:32:00.945Z,13.18
2019-05-18T06:33:01.059Z,13.22
2019-05-18T06:34:01.070Z,13.36
2019-05-18T06:35:00.875Z,13.38
2019-05-18T06:36:00.976Z,13.49
2019-05-18T06:37:00.817Z,13.52
2019-05-18T06:38:00.886Z,13.61
2019-05-18T06:39:00.792Z,13.65
2019-05-18T06:40:00.896Z,13.62
2019-05-18T06:41:00.749Z,13.80
2019-05-18T06:42:00.816Z,13.83
2019-05-18T06:43:00.669Z,13.94
2019-05-18T06:44:00.827Z,13.84
2019-05-18T06:45:00.621Z,13.94
2019-05-18T06:46:00.791Z,13.89
2019-05-18T06:47:00.571Z,13.89
2019-05-18T06:48:00.657Z,13.98
2019-05-18T06:49:00.532Z,14.04
2019-05-18T06:50:00.494Z,14.12
2019-05-18T06:51:07.043Z,14.16
2019-05-18T06:52:00.579Z,14.13
2019-05-18T06:53:00.436Z,14.16
2019-05-18T06:54:00.508Z,14.28
2019-05-18T06:55:00.377Z,14.38
2019-05-18T06:56:00.520Z,14.42
2019-05-18T06:57:00.320Z,14.38
2019-05-18T06:58:00.429Z,14.49
2019-05-18T06:59:00.279Z,14.44
2019-05-18T07:00:00.428Z,14.49
2019-05-18T07:01:00.226Z,14.60
2019-05-18T07:02:00.352Z,14.57
2019-05-18T07:03:00.181Z,14.72
2019-05-18T07:04:00.359Z,14.83
2019-05-18T07:05:00.138Z,14.86
2019-05-18T07:06:00.109Z,14.84
2019-05-18T07:07:00.102Z,14.88
2019-05-18T07:08:00.078Z,15.02
2019-05-18T07:09:00.041Z,15.03
2019-05-18T07:10:00.091Z,15.05
2019-05-18T07:11:00.101Z,15.13
2019-05-18T07:11:59.959Z,15.19
2019-05-18T07:13:00.010Z,15.17
2019-05-18T07:13:59.907Z,15.38
2019-05-18T07:15:00.483Z,15.21
2019-05-18T07:15:59.868Z,15.31
2019-05-18T07:16:59.939Z,15.27
2019-05-18T07:17:59.835Z,15.13
2019-05-18T07:18:59.885Z,15.13
2019-05-18T07:19:59.766Z,15.21
2019-05-18T07:20:59.758Z,15.27
2019-05-18T07:21:59.729Z,15.11
2019-05-18T07:22:59.773Z,15.20
2019-05-18T07:23:59.680Z,15.19
2019-05-18T07:24:59.698Z,15.19
2019-05-18T07:25:59.620Z,15.21
2019-05-18T07:26:59.599Z,15.24
2019-05-18T07:27:59.574Z,15.31
2019-05-18T07:28:59.607Z,15.36
2019-05-18T07:29:59.540Z,15.33
2019-05-18T07:30:59.517Z,15.39
2019-05-18T07:31:59.530Z,15.36
2019-05-18T07:32:59.454Z,15.33
2019-05-18T07:33:59.548Z,15.33
2019-05-18T07:34:59.408Z,15.24
2019-05-18T07:35:59.469Z,15.23
2019-05-18T07:36:59.478Z,15.31
2019-05-18T07:37:59.338Z,15.21
2019-05-18T07:38:59.392Z,15.21
2019-05-18T07:39:59.288Z,15.19
2019-05-18T07:40:59.287Z,15.24
2019-05-18T07:41:59.416Z,15.31
2019-05-18T07:42:59.301Z,15.35
2019-05-18T07:43:59.187Z,15.31
2019-05-18T07:44:59.227Z,15.41
2019-05-18T07:45:59.156Z,15.48
2019-05-18T07:46:59.229Z,15.52
2019-05-18T07:47:59.099Z,15.63
2019-05-18T07:48:59.140Z,15.61
2019-05-18T07:49:59.058Z,15.64
2019-05-18T07:50:59.060Z,15.67
2019-05-18T07:51:59.011Z,15.75
2019-05-18T07:52:58.977Z,15.75
2019-05-18T07:53:58.968Z,15.78
2019-05-18T07:54:58.938Z,15.82
2019-05-18T07:55:58.987Z,15.86
2019-05-18T07:56:58.905Z,15.92
2019-05-18T07:57:58.859Z,16.07
2019-05-18T07:58:58.835Z,16.07
2019-05-18T07:59:58.911Z,16.20
2019-05-18T08:00:58.797Z,16.26
2019-05-18T08:01:58.820Z,16.33
2019-05-18T08:02:58.832Z,16.35
2019-05-18T08:03:58.736Z,16.41
2019-05-18T08:04:58.739Z,16.37
2019-05-18T08:05:58.676Z,16.50
2019-05-18T08:06:58.757Z,16.50
2019-05-18T08:07:58.629Z,16.50
2019-05-18T08:08:58.667Z,16.42
2019-05-18T08:09:58.590Z,16.55
2019-05-18T08:10:58.679Z,16.56
2019-05-18T08:11:58.536Z,16.63
2019-05-18T08:12:58.589Z,16.78
2019-05-18T08:13:58.490Z,16.77
2019-05-18T08:14:58.509Z,16.85
2019-05-18T08:15:58.446Z,16.78
2019-05-18T08:16:58.524Z,16.71
2019-05-18T08:17:58.396Z,16.65
2019-05-18T08:18:58.377Z,16.67
2019-05-18T08:19:58.439Z,16.58
2019-05-18T08:20:58.330Z,16.55
2019-05-18T08:21:58.362Z,16.49
2019-05-18T08:22:58.288Z,16.68
2019-05-18T08:23:58.256Z,16.63
2019-05-18T08:24:58.237Z,16.73
2019-05-18T08:25:58.278Z,16.74
2019-05-18T08:27:00.060Z,16.80
2019-05-18T08:27:58.288Z,16.88
2019-05-18T08:28:58.167Z,16.96
2019-05-18T08:29:58.204Z,16.96
2019-05-18T08:30:58.121Z,16.99
2019-05-18T08:31:58.118Z,17.06
2019-05-18T08:32:58.063Z,17.04
2019-05-18T08:33:58.127Z,17.07
2019-05-18T08:34:58.018Z,17.06
2019-05-18T08:35:58.040Z,17.07
2019-05-18T08:36:58.022Z,17.06
2019-05-18T08:37:58.132Z,17.11
2019-05-18T08:38:57.918Z,17.08
2019-05-18T08:39:57.898Z,17.26
2019-05-18T08:40:57.880Z,17.25
2019-05-18T08:41:57.876Z,17.38
2019-05-18T08:42:57.837Z,17.53
2019-05-18T08:43:57.889Z,17.76
2019-05-18T08:44:57.900Z,17.92
2019-05-18T08:45:57.771Z,17.97
2019-05-18T08:46:57.808Z,18.12
2019-05-18T08:47:57.716Z,18.10
2019-05-18T08:48:57.717Z,18.17
2019-05-18T08:49:57.742Z,18.28
2019-05-18T08:50:57.648Z,18.39
2019-05-18T08:52:07.874Z,18.50
2019-05-18T08:52:57.634Z,18.72
2019-05-18T08:53:57.664Z,18.84
2019-05-18T08:54:57.569Z,19.01
2019-05-18T08:55:57.566Z,19.21
2019-05-18T08:56:57.519Z,19.35
2019-05-18T08:57:57.590Z,19.54
2019-05-18T08:58:57.476Z,19.60
2019-05-18T08:59:57.496Z,19.63
2019-05-18T09:00:57.439Z,19.65
2019-05-18T09:01:57.507Z,19.83
2019-05-18T09:02:57.387Z,19.93
2019-05-18T09:03:57.417Z,20.10
2019-05-18T09:04:57.349Z,20.30
2019-05-18T09:05:57.323Z,20.53
2019-05-18T09:06:57.303Z,20.66
2019-05-18T09:07:57.346Z,20.68
2019-05-18T09:08:57.261Z,20.76
2019-05-18T09:09:57.269Z,20.81
2019-05-18T09:10:57.227Z,20.90
2019-05-18T09:11:57.196Z,20.99
2019-05-18T09:12:57.298Z,21.08
2019-05-18T09:13:57.147Z,21.21
2019-05-18T09:14:57.195Z,21.39
2019-05-18T09:15:57.108Z,21.27
2019-05-18T09:16:57.088Z,21.39
2019-05-18T09:17:57.056Z,21.74
2019-05-18T09:18:57.117Z,21.78
2019-05-18T09:19:57.017Z,21.88
2019-05-18T09:20:57.038Z,21.78
2019-05-18T09:21:57.047Z,21.98
2019-05-18T09:22:56.955Z,22.01
2019-05-18T09:23:57.056Z,22.28
2019-05-18T09:24:56.917Z,22.25
2019-05-18T09:25:56.965Z,22.49
2019-05-18T09:26:56.904Z,22.78
2019-05-18T09:27:56.888Z,23.02
2019-05-18T09:28:56.848Z,23.09
2019-05-18T09:29:56.891Z,23.40
2019-05-18T09:30:56.801Z,23.65
2019-05-18T09:31:56.797Z,23.50
2019-05-18T09:32:56.781Z,23.55
2019-05-18T09:33:56.828Z,23.67
2019-05-18T09:34:56.707Z,23.86
2019-05-18T09:35:56.727Z,23.90
2019-05-18T09:36:56.677Z,24.16
2019-05-18T09:37:56.658Z,24.27
2019-05-18T09:38:56.637Z,24.20
2019-05-18T09:39:56.661Z,24.20
2019-05-18T09:40:56.596Z,24.32
2019-05-18T09:41:56.667Z,24.24
2019-05-18T09:42:56.549Z,24.31
2019-05-18T09:43:56.578Z,24.47
2019-05-18T09:44:56.517Z,24.57
2019-05-18T09:45:56.596Z,24.76
2019-05-18T09:46:56.479Z,24.87
2019-05-18T09:47:56.470Z,24.90
2019-05-18T09:48:56.445Z,24.73
2019-05-18T09:49:56.518Z,24.60
2019-05-18T09:50:56.447Z,24.71
2019-05-18T09:51:56.431Z,24.88
2019-05-18T09:52:56.368Z,25.06
2019-05-18T09:53:56.450Z,25.20
2019-05-18T09:54:56.331Z,25.16
2019-05-18T09:55:56.361Z,25.22
2019-05-18T09:56:56.287Z,25.19
2019-05-18T09:57:56.366Z,25.24
2019-05-18T09:58:56.250Z,25.15
2019-05-18T09:59:56.297Z,25.38
2019-05-18T10:00:56.231Z,25.52
2019-05-18T10:01:56.298Z,25.42
2019-05-18T10:02:56.177Z,25.44
2019-05-18T10:03:56.161Z,25.64
2019-05-18T10:04:56.140Z,25.69
2019-05-18T10:05:56.231Z,25.59
2019-05-18T10:06:56.107Z,25.49
2019-05-18T10:07:56.138Z,25.44
2019-05-18T10:08:56.138Z,25.34
2019-05-18T10:09:56.060Z,25.47
2019-05-18T10:10:56.069Z,25.64
2019-05-18T10:11:56.024Z,25.71
2019-05-18T10:12:56.077Z,25.56
2019-05-18T10:13:55.978Z,25.24
2019-05-18T10:14:55.978Z,24.82
2019-05-18T10:15:55.946Z,24.61
2019-05-18T10:16:56.008Z,24.57
2019-05-18T10:17:55.917Z,24.47
2019-05-18T10:18:55.908Z,24.39
2019-05-18T10:19:55.879Z,24.35
2019-05-18T10:20:55.918Z,24.27
2019-05-18T10:21:55.862Z,24.13
2019-05-18T10:23:11.945Z,24.02
2019-05-18T10:23:55.818Z,24.08
2019-05-18T10:24:55.800Z,24.37
2019-05-18T10:25:55.859Z,24.53
2019-05-18T10:26:55.761Z,24.83
2019-05-18T10:27:55.766Z,25.07
2019-05-18T10:28:55.728Z,25.19
2019-05-18T10:29:55.709Z,25.31
2019-05-18T10:30:55.789Z,25.52
2019-05-18T10:31:55.677Z,25.74
2019-05-18T10:32:55.708Z,25.90
2019-05-18T10:33:55.639Z,26.06
2019-05-18T10:34:55.617Z,26.21
2019-05-18T10:35:55.609Z,26.18
2019-05-18T10:36:55.634Z,26.29
2019-05-18T10:37:55.578Z,26.46
2019-05-18T10:38:55.642Z,26.54
2019-05-18T10:39:55.526Z,26.52
2019-05-18T10:40:55.549Z,26.69
2019-05-18T10:41:55.497Z,26.77
2019-05-18T10:42:55.568Z,26.80
2019-05-18T10:43:55.476Z,26.81
2019-05-18T10:44:55.483Z,26.83
2019-05-18T10:45:55.430Z,26.76
2019-05-18T10:46:55.490Z,26.91
2019-05-18T10:47:55.405Z,27.06
2019-05-18T10:48:55.411Z,27.16
2019-05-18T10:49:55.361Z,27.02
2019-05-18T10:50:55.359Z,27.06
2019-05-18T10:51:55.436Z,27.20
2019-05-18T10:52:55.315Z,27.29
2019-05-18T10:53:55.352Z,27.28
2019-05-18T10:54:55.257Z,27.28
2019-05-18T10:55:55.280Z,27.32
2019-05-18T10:56:55.261Z,27.35
2019-05-18T10:57:55.368Z,27.31
2019-05-18T10:58:55.301Z,26.65
2019-05-18T10:59:55.468Z,26.22
2019-05-18T11:00:55.302Z,25.89
2019-05-18T11:01:55.170Z,25.99
2019-05-18T11:02:55.312Z,26.04
2019-05-18T11:03:55.154Z,26.29
2019-05-18T11:04:55.310Z,26.37
2019-05-18T11:05:55.152Z,26.42
2019-05-18T11:06:55.228Z,26.21
2019-05-18T11:07:55.063Z,26.04
2019-05-18T11:08:55.246Z,26.04
2019-05-18T11:09:55.058Z,26.43
2019-05-18T11:10:55.065Z,26.74
2019-05-18T11:11:55.028Z,26.98
2019-05-18T11:12:55.169Z,27.16
2019-05-18T11:13:54.979Z,27.33
2019-05-18T11:14:55.181Z,27.59
2019-05-18T11:15:54.961Z,27.74
2019-05-18T11:16:54.956Z,27.71
2019-05-18T11:17:54.928Z,27.53
2019-05-18T11:18:55.110Z,27.36
2019-05-18T11:19:54.906Z,27.51
2019-05-18T11:20:54.918Z,27.76
2019-05-18T11:21:54.867Z,27.91
2019-05-18T11:22:55.028Z,28.09
2019-05-18T11:23:54.842Z,27.92
2019-05-18T11:24:54.944Z,27.59
2019-05-18T11:25:54.818Z,27.38
2019-05-18T11:26:54.959Z,27.23
2019-05-18T11:27:54.779Z,27.13
2019-05-18T11:28:54.975Z,27.01
2019-05-18T11:29:54.748Z,26.98
2019-05-18T11:30:54.881Z,26.80
2019-05-18T11:31:54.717Z,26.54
2019-05-18T11:32:54.719Z,26.36
2019-05-18T11:33:54.820Z,26.15
2019-05-18T11:34:54.686Z,25.97
2019-05-18T11:35:54.716Z,25.77
2019-05-18T11:36:54.666Z,25.61
2019-05-18T11:37:54.637Z,25.56
2019-05-18T11:38:54.621Z,25.54
2019-05-18T11:39:54.640Z,25.54
2019-05-18T11:40:54.588Z,25.32
2019-05-18T11:41:54.656Z,25.32
2019-05-18T11:42:54.549Z,25.17
2019-05-18T11:43:54.538Z,25.17
2019-05-18T11:44:54.580Z,25.24
2019-05-18T11:45:54.567Z,25.17
2019-05-18T11:46:54.599Z,25.17
2019-05-18T11:47:54.489Z,25.20
2019-05-18T11:48:54.470Z,25.22
2019-05-18T11:49:54.455Z,25.38
2019-05-18T11:50:54.519Z,25.87
2019-05-18T11:51:54.420Z,26.31
2019-05-18T11:52:54.563Z,26.37
2019-05-18T11:53:58.292Z,26.24
2019-05-18T11:54:54.366Z,26.01
2019-05-18T11:55:54.478Z,25.89
2019-05-18T11:56:54.385Z,25.67
2019-05-18T11:57:54.460Z,25.65
2019-05-18T11:58:54.311Z,25.53
2019-05-18T11:59:54.368Z,25.34
2019-05-18T12:00:54.316Z,25.27
2019-05-18T12:01:54.386Z,25.15
2019-05-18T12:02:54.248Z,25.06
2019-05-18T12:03:54.304Z,25.15
2019-05-18T12:04:54.217Z,25.09
2019-05-18T12:05:54.312Z,25.15
2019-05-18T12:06:54.201Z,25.07
2019-05-18T12:07:54.239Z,25.07
2019-05-18T12:08:54.158Z,25.00
2019-05-18T12:09:54.136Z,25.05
2019-05-18T12:10:56.192Z,25.05
2019-05-18T12:11:54.248Z,24.95
2019-05-18T12:12:54.093Z,24.83
2019-05-18T12:13:54.169Z,24.80
2019-05-18T12:14:54.060Z,24.73
2019-05-18T12:15:54.179Z,24.60
2019-05-18T12:16:54.028Z,24.61
2019-05-18T12:17:54.095Z,24.57
2019-05-18T12:18:57.459Z,24.52
2019-05-18T12:19:54.123Z,24.57
2019-05-18T12:20:53.967Z,24.44
2019-05-18T12:21:54.029Z,24.54
2019-05-18T12:22:53.938Z,24.63
2019-05-18T12:23:54.031Z,24.56
2019-05-18T12:24:53.922Z,24.60
2019-05-18T12:25:53.894Z,24.63
2019-05-18T12:26:53.882Z,24.59
2019-05-18T12:27:53.965Z,24.61
2019-05-18T12:28:53.849Z,24.88
2019-05-18T12:29:53.972Z,24.85
2019-05-18T12:30:53.878Z,24.77
2019-05-18T12:31:53.798Z,24.68
2019-05-18T12:32:53.899Z,24.76
2019-05-18T12:33:53.769Z,24.68
2019-05-18T12:34:53.908Z,24.80
2019-05-18T12:35:53.808Z,25.05
2019-05-18T12:36:53.723Z,25.39
2019-05-18T12:37:53.720Z,25.80
2019-05-18T12:38:53.679Z,25.94
2019-05-18T12:39:53.736Z,26.06
2019-05-18T12:40:53.648Z,25.90
2019-05-18T12:41:53.807Z,26.02
2019-05-18T12:42:53.618Z,26.06
2019-05-18T12:43:53.662Z,26.21
2019-05-18T12:44:53.587Z,26.18
2019-05-18T12:45:53.689Z,26.02
2019-05-18T12:46:53.651Z,26.05
2019-05-18T12:47:53.590Z,25.86
2019-05-18T12:48:53.531Z,25.74
2019-05-18T12:49:53.615Z,25.56
2019-05-18T12:50:53.507Z,25.47
2019-05-18T12:51:53.478Z,25.74
2019-05-18T12:52:53.517Z,26.05
2019-05-18T12:53:53.458Z,26.35
2019-05-18T12:54:53.539Z,26.65